Eems Trader — V2DE3 — position and weather

sailwx.info

Track history (hours):
 
Tides and Currents Weather Stations Pressure Air Temp Water Temp Dewpoint Dewpoint Depression Visibility Wind Speed Wind Dir Waves Ship Positions

Eems Trader

Last reported at 2016-May-04 14:24 UTC. Time now 2016-May-04 17:25 UTC.
Position N 48°51' W 005°24'.

Length 89 m; draft 4.3 m.

Type: Cargo ship. MMSI: 305182000.

Date/timePositionNaut miles runAvg speedWind from/ knotsBaromVisibWave heightAir tempDewpointWater temp
2016-May-04 14:24N 48°51' W 005°24'9 9.9
2016-May-04 13:32N 48°46' W 005°35'  
2016-Apr-30 13:05N 39°02' W 009°51'3 3.9
2016-Apr-30 12:18N 38°59' W 009°51'12 4.0
2016-Apr-30 09:15N 38°47' W 009°51'3 4.0
2016-Apr-30 08:27N 38°44' W 009°51'5 4.3
2016-Apr-30 07:22N 38°39' W 009°50'4 4.6
2016-Apr-30 06:33N 38°35' W 009°49'5 4.6
2016-Apr-30 05:29N 38°31' W 009°48'33 5.2
2016-Apr-29 23:10N 37°59' W 009°38'5 5.4
2016-Apr-29 22:11N 37°54' W 009°37'4 5.7
2016-Apr-29 21:33N 37°50' W 009°36'6 6.3
2016-Apr-29 20:32N 37°44' W 009°34'7 6.8
2016-Apr-29 19:33N 37°37' W 009°32'7 7.0
2016-Apr-29 18:33N 37°30' W 009°30'7 7.0
2016-Apr-29 17:33N 37°24' W 009°28'15 7.1
2016-Apr-29 15:29N 37°09' W 009°24'202 7.2
2016-Apr-28 11:25N 35°60' W 005°28'6 5.8
2016-Apr-28 10:28N 36°01' W 005°21'223 7.5
2016-Apr-27 04:33N 37°16' W 000°59'9 8.9
2016-Apr-27 03:34N 37°22' W 000°51'11 8.5
2016-Apr-27 02:17N 37°29' W 000°41'6 8.0
2016-Apr-27 01:33N 37°33' W 000°35'8 7.8
2016-Apr-27 00:32N 37°39' W 000°29'16 8.0
2016-Apr-26 22:31N 37°53' W 000°18'9 8.3
2016-Apr-26 21:29N 38°00' W 000°12'16 8.0
2016-Apr-26 19:29N 38°14' W 000°01'8 8.1
2016-Apr-26 18:33N 38°20' E 000°04'34 8.1
2016-Apr-26 14:20N 38°49' E 000°27'7 8.2
2016-Apr-26 13:30N 38°55' E 000°31'69 8.4
2016-Apr-26 05:18N 39°56' E 001°13'7 8.9
2016-Apr-26 04:33N 40°02' E 001°16'9 8.9
2016-Apr-26 03:33N 40°10' E 001°22'9 8.9
2016-Apr-26 02:33N 40°17' E 001°29'9 8.9
2016-Apr-26 01:31N 40°25' E 001°35'8 8.6
2016-Apr-26 00:33N 40°32' E 001°40'8 8.0
2016-Apr-25 23:30N 40°40' E 001°44'  
Track history (hours):
 
Tides and Currents Weather Stations Pressure Air Temp Water Temp Dewpoint Dewpoint Depression Visibility Wind Speed Wind Dir Waves Ship Positions

Eems Trader

Last reported at 2016-May-04 14:24 UTC. Time now 2016-May-04 17:25 UTC.
Position N 48°51' W 005°24'.

Length 89 m; draft 4.3 m.

Type: Cargo ship. MMSI: 305182000.

Date/timePositionNaut miles runAvg speedWind from/ knotsBaromVisibWave heightAir tempDewpointWater temp
2016-May-04 14:24N 48°51' W 005°24'9 9.9
2016-May-04 13:32N 48°46' W 005°35'  
2016-Apr-30 13:05N 39°02' W 009°51'3 3.9
2016-Apr-30 12:18N 38°59' W 009°51'12 4.0
2016-Apr-30 09:15N 38°47' W 009°51'3 4.0
2016-Apr-30 08:27N 38°44' W 009°51'5 4.3
2016-Apr-30 07:22N 38°39' W 009°50'4 4.6
2016-Apr-30 06:33N 38°35' W 009°49'5 4.6
2016-Apr-30 05:29N 38°31' W 009°48'33 5.2
2016-Apr-29 23:10N 37°59' W 009°38'5 5.4
2016-Apr-29 22:11N 37°54' W 009°37'4 5.7
2016-Apr-29 21:33N 37°50' W 009°36'6 6.3
2016-Apr-29 20:32N 37°44' W 009°34'7 6.8
2016-Apr-29 19:33N 37°37' W 009°32'7 7.0
2016-Apr-29 18:33N 37°30' W 009°30'7 7.0
2016-Apr-29 17:33N 37°24' W 009°28'15 7.1
2016-Apr-29 15:29N 37°09' W 009°24'202 7.2
2016-Apr-28 11:25N 35°60' W 005°28'6 5.8
2016-Apr-28 10:28N 36°01' W 005°21'223 7.5
2016-Apr-27 04:33N 37°16' W 000°59'9 8.9
2016-Apr-27 03:34N 37°22' W 000°51'11 8.5
2016-Apr-27 02:17N 37°29' W 000°41'6 8.0
2016-Apr-27 01:33N 37°33' W 000°35'8 7.8
2016-Apr-27 00:32N 37°39' W 000°29'16 8.0
2016-Apr-26 22:31N 37°53' W 000°18'9 8.3
2016-Apr-26 21:29N 38°00' W 000°12'16 8.0
2016-Apr-26 19:29N 38°14' W 000°01'8 8.1
2016-Apr-26 18:33N 38°20' E 000°04'34 8.1
2016-Apr-26 14:20N 38°49' E 000°27'7 8.2
2016-Apr-26 13:30N 38°55' E 000°31'69 8.4
2016-Apr-26 05:18N 39°56' E 001°13'7 8.9
2016-Apr-26 04:33N 40°02' E 001°16'9 8.9
2016-Apr-26 03:33N 40°10' E 001°22'9 8.9
2016-Apr-26 02:33N 40°17' E 001°29'9 8.9
2016-Apr-26 01:31N 40°25' E 001°35'8 8.6
2016-Apr-26 00:33N 40°32' E 001°40'8 8.0
2016-Apr-25 23:30N 40°40' E 001°44'  

Dump ship's entire track history